Time,TemperatureF,DewpointF,PressureIn,WindDirection,WindDirectionDegrees,WindSpeedMPH,WindSpeedGustMPH,Humidity,HourlyPrecipIn,Conditions,Clouds,dailyrainin,SoftwareType,DateUTC
2013-05-13 00:00:00,68.0,-99.9,-100.00,WNW,291,0.0,2.0,-999,-99.99,,,-99.99,,2013-05-13 06:00:00,
2013-05-13 00:01:00,69.0,-99.9,-100.00,SSE,147,0.0,7.0,-999,-99.99,,,-99.99,,2013-05-13 06:01:00,
2013-05-13 00:12:00,69.0,-99.9,-100.00,SSE,147,0.0,7.0,-999,-99.99,,,-99.99,,2013-05-13 06:12:00,
2013-05-13 00:40:00,67.0,-99.9,-100.00,SSW,211,5.0,6.0,-999,-99.99,,,-99.99,,2013-05-13 06:40:00,
2013-05-13 00:52:00,68.0,-99.9,-100.00,WNW,291,0.0,2.0,-999,-99.99,,,-99.99,,2013-05-13 06:52:00,
2013-05-13 01:22:00,67.0,-99.9,-100.00,SSW,211,5.0,6.0,-999,-99.99,,,-99.99,,2013-05-13 07:22:00,
2013-05-13 01:32:00,67.0,-99.9,-100.00,SSW,211,5.0,6.0,-999,-99.99,,,-99.99,,2013-05-13 07:32:00,
2013-05-13 02:02:00,66.0,-99.9,-100.00,SE,142,0.0,3.0,-999,-99.99,,,-99.99,,2013-05-13 08:02:00,
2013-05-13 02:11:00,66.0,-99.9,-100.00,SE,142,0.0,3.0,-999,-99.99,,,-99.99,,2013-05-13 08:11:00,
2013-05-13 03:22:00,64.0,-99.9,-100.00,SW,219,3.0,6.0,-999,-99.99,,,-99.99,,2013-05-13 09:22:00,
2013-05-13 03:33:00,64.0,-99.9,-100.00,SW,221,5.0,6.0,-999,-99.99,,,-99.99,,2013-05-13 09:33:00,
2013-05-13 03:42:00,64.0,-99.9,-100.00,SW,221,5.0,6.0,-999,-99.99,,,-99.99,,2013-05-13 09:42:00,
2013-05-13 03:50:00,63.0,-99.9,-100.00,ENE,62,2.0,2.0,-999,-99.99,,,-99.99,,2013-05-13 09:50:00,
2013-05-13 04:33:00,63.0,-99.9,-100.00,ENE,62,2.0,2.0,-999,-99.99,,,-99.99,,2013-05-13 10:33:00,
2013-05-13 04:43:00,63.0,-99.9,-100.00,ENE,62,2.0,2.0,-999,-99.99,,,-99.99,,2013-05-13 10:43:00,
2013-05-13 05:52:00,63.0,-99.9,-100.00,WSW,239,4.0,4.0,-999,-99.99,,,-99.99,,2013-05-13 11:52:00,
2013-05-13 06:02:00,63.0,-99.9,-100.00,WSW,239,4.0,4.0,-999,-99.99,,,-99.99,,2013-05-13 12:02:00,
2013-05-13 06:10:00,60.0,-99.9,-100.00,ENE,61,2.0,3.0,-999,-99.99,,,-99.99,,2013-05-13 12:10:00,
2013-05-13 06:52:00,60.0,-99.9,-100.00,ENE,61,2.0,3.0,-999,-99.99,,,-99.99,,2013-05-13 12:52:00,
2013-05-13 07:01:00,60.0,-99.9,-100.00,ENE,61,2.0,3.0,-999,-99.99,,,-99.99,,2013-05-13 13:01:00,
2013-05-13 07:32:00,68.0,-99.9,-100.00,East,95,0.0,0.0,-999,-99.99,,,-99.99,,2013-05-13 13:32:00,
2013-05-13 07:42:00,68.0,-99.9,-100.00,East,95,0.0,0.0,-999,-99.99,,,-99.99,,2013-05-13 13:42:00,
2013-05-13 07:52:00,68.0,-99.9,-100.00,East,95,0.0,0.0,-999,-99.99,,,-99.99,,2013-05-13 13:52:00,
2013-05-13 08:00:00,77.0,-99.9,-100.00,SW,227,3.0,4.0,-999,-99.99,,,-99.99,,2013-05-13 14:00:00,
2013-05-13 08:02:00,74.0,-99.9,-100.00,South,186,1.0,1.0,-999,-99.99,,,-99.99,,2013-05-13 14:02:00,
2013-05-13 08:11:00,74.0,-99.9,-100.00,South,186,1.0,1.0,-999,-99.99,,,-99.99,,2013-05-13 14:11:00,
2013-05-13 08:52:00,77.0,-99.9,-100.00,SW,227,3.0,4.0,-999,-99.99,,,-99.99,,2013-05-13 14:52:00,
2013-05-13 10:00:00,73.0,-99.9,-100.00,East,93,1.0,3.0,-999,-99.99,,,-99.99,,2013-05-13 16:00:00,
2013-05-13 10:53:00,73.0,-99.9,-100.00,East,93,1.0,3.0,-999,-99.99,,,-99.99,,2013-05-13 16:53:00,
2013-05-13 12:00:00,79.0,-99.9,-100.00,SE,134,4.0,8.0,-999,-99.99,,,-99.99,,2013-05-13 18:00:00,
2013-05-13 12:50:00,82.0,-99.9,-100.00,SSE,156,1.0,4.0,-999,-99.99,,,-99.99,,2013-05-13 18:50:00,
2013-05-13 12:52:00,79.0,-99.9,-100.00,SE,134,4.0,8.0,-999,-99.99,,,-99.99,,2013-05-13 18:52:00,
2013-05-13 13:33:00,82.0,-99.9,-100.00,SSE,156,1.0,4.0,-999,-99.99,,,-99.99,,2013-05-13 19:33:00,
2013-05-13 13:44:00,82.0,-99.9,-100.00,SSE,156,1.0,4.0,-999,-99.99,,,-99.99,,2013-05-13 19:44:00,
2013-05-13 14:02:00,82.0,-99.9,-100.00,NNW,339,1.0,5.0,-999,-99.99,,,-99.99,,2013-05-13 20:02:00,
2013-05-13 14:11:00,82.0,-99.9,-100.00,NNW,339,1.0,5.0,-999,-99.99,,,-99.99,,2013-05-13 20:11:00,
2013-05-13 14:23:00,82.0,-99.9,-100.00,NNW,339,1.0,5.0,-999,-99.99,,,-99.99,,2013-05-13 20:23:00,
2013-05-13 14:30:00,87.0,-99.9,-100.00,NE,46,1.0,6.0,-999,-99.99,,,-99.99,,2013-05-13 20:30:00,
2013-05-13 15:03:00,82.0,-99.9,-100.00,NE,43,2.0,6.0,-999,-99.99,,,-99.99,,2013-05-13 21:03:00,
2013-05-13 15:14:00,82.0,-99.9,-100.00,NE,43,2.0,6.0,-999,-99.99,,,-99.99,,2013-05-13 21:14:00,
2013-05-13 15:23:00,87.0,-99.9,-100.00,NE,46,1.0,6.0,-999,-99.99,,,-99.99,,2013-05-13 21:23:00,
2013-05-13 16:30:00,84.0,-99.9,-100.00,ESE,107,3.0,5.0,-999,-99.99,,,-99.99,,2013-05-13 22:30:00,
2013-05-13 17:23:00,84.0,-99.9,-100.00,ESE,107,3.0,5.0,-999,-99.99,,,-99.99,,2013-05-13 23:23:00,
2013-05-13 18:30:00,84.0,-99.9,-100.00,South,178,0.0,1.0,-999,-99.99,,,-99.99,,2013-05-14 00:30:00,
2013-05-13 19:21:00,84.0,-99.9,-100.00,South,178,0.0,1.0,-999,-99.99,,,-99.99,,2013-05-14 01:21:00,
2013-05-13 20:40:00,78.0,-99.9,-100.00,SSW,207,4.0,6.0,-999,-99.99,,,-99.99,,2013-05-14 02:40:00,
2013-05-13 21:01:00,79.0,-99.9,-100.00,NE,34,4.0,5.0,-999,-99.99,,,-99.99,,2013-05-14 03:01:00,
2013-05-13 21:11:00,79.0,-99.9,-100.00,NE,34,4.0,5.0,-999,-99.99,,,-99.99,,2013-05-14 03:11:00,
2013-05-13 21:22:00,78.0,-99.9,-100.00,SSW,207,4.0,6.0,-999,-99.99,,,-99.99,,2013-05-14 03:22:00,
2013-05-13 21:33:00,78.0,-99.9,-100.00,SSW,207,4.0,6.0,-999,-99.99,,,-99.99,,2013-05-14 03:33:00,
2013-05-13 23:32:00,73.0,-99.9,-100.00,North,9,1.0,1.0,-999,-99.99,,,-99.99,,2013-05-14 05:32:00,
2013-05-13 23:42:00,73.0,-99.9,-100.00,North,9,1.0,1.0,-999,-99.99,,,-99.99,,2013-05-14 05:42:00,